createdAt,value
2022-11-29T00:00:25.797Z,19.17
2022-11-29T00:02:53.447Z,19.95
2022-11-29T00:05:26.770Z,19.02
2022-11-29T00:07:53.676Z,17.13
2022-11-29T00:10:26.856Z,15.52
2022-11-29T00:12:54.926Z,15.80
2022-11-29T00:15:21.724Z,15.27
2022-11-29T00:17:54.844Z,14.18
2022-11-29T00:20:22.961Z,13.73
2022-11-29T00:22:56.909Z,13.10
2022-11-29T00:25:23.944Z,12.05
2022-11-29T00:27:57.858Z,11.63
2022-11-29T00:30:24.826Z,11.30
2022-11-29T00:32:57.885Z,12.50
2022-11-29T00:35:24.739Z,11.93
2022-11-29T00:37:51.514Z,10.77
2022-11-29T00:40:25.044Z,11.68
2022-11-29T00:42:58.857Z,10.63
2022-11-29T00:45:25.759Z,12.02
2022-11-29T00:47:58.908Z,11.27
2022-11-29T00:50:25.820Z,9.63
2022-11-29T00:52:59.111Z,10.65
2022-11-29T00:55:25.999Z,10.57
2022-11-29T00:57:58.892Z,9.88
2022-11-29T01:00:25.819Z,9.75
2022-11-29T01:02:52.763Z,11.77
2022-11-29T01:05:25.879Z,13.18
2022-11-29T01:08:02.783Z,12.15
2022-11-29T01:10:35.898Z,11.20
2022-11-29T01:13:02.799Z,14.63
2022-11-29T01:15:35.982Z,14.38
2022-11-29T01:18:02.891Z,14.40
2022-11-29T01:20:35.992Z,14.30
2022-11-29T01:23:02.800Z,14.60
2022-11-29T01:25:35.868Z,12.07
2022-11-29T01:28:02.741Z,11.93
2022-11-29T01:30:35.941Z,12.25
2022-11-29T01:33:02.691Z,10.45
2022-11-29T01:35:35.916Z,11.20
2022-11-29T01:38:02.894Z,12.57
2022-11-29T01:40:35.959Z,11.52
2022-11-29T01:43:02.761Z,10.23
2022-11-29T01:45:44.013Z,10.52
2022-11-29T01:48:14.030Z,12.52
2022-11-29T01:50:42.637Z,11.48
2022-11-29T01:53:18.949Z,15.23
2022-11-29T01:55:59.037Z,12.93
2022-11-29T01:58:26.247Z,12.70
2022-11-29T02:00:59.991Z,17.08
2022-11-29T02:03:27.174Z,17.23
2022-11-29T02:05:55.549Z,17.10
2022-11-29T02:08:36.067Z,17.75
2022-11-29T02:11:37.972Z,17.67
2022-11-29T02:14:52.048Z,18.08
2022-11-29T02:17:50.947Z,17.50
2022-11-29T02:20:36.418Z,16.00
2022-11-29T02:23:25.073Z,18.35
2022-11-29T02:25:57.659Z,17.23
2022-11-29T02:28:54.995Z,16.00
2022-11-29T02:32:02.187Z,14.13
2022-11-29T02:35:00.002Z,13.55
2022-11-29T02:37:55.101Z,13.48
2022-11-29T02:40:50.218Z,10.80
2022-11-29T02:43:51.050Z,10.73
2022-11-29T02:46:27.755Z,11.40
2022-11-29T02:49:33.047Z,9.82
2022-11-29T02:52:06.990Z,13.13
2022-11-29T02:55:06.035Z,14.35
2022-11-29T02:58:03.239Z,13.57
2022-11-29T03:00:39.070Z,12.48
2022-11-29T03:03:19.250Z,15.23
2022-11-29T03:06:20.079Z,16.45
2022-11-29T03:08:59.289Z,16.52
2022-11-29T03:11:51.124Z,17.98
2022-11-29T03:14:33.070Z,18.98
2022-11-29T03:17:21.519Z,21.92
2022-11-29T03:20:04.162Z,19.92
2022-11-29T03:22:39.102Z,17.92
2022-11-29T03:25:15.110Z,16.95
2022-11-29T03:27:50.749Z,15.15
2022-11-29T03:30:25.160Z,16.67
2022-11-29T03:33:17.017Z,24.70
2022-11-29T03:35:58.069Z,23.70
2022-11-29T03:38:52.726Z,22.83
2022-11-29T03:41:35.164Z,20.38
2022-11-29T03:44:32.204Z,19.35
2022-11-29T03:47:05.614Z,20.42
2022-11-29T03:49:56.172Z,23.50
2022-11-29T03:52:56.166Z,22.77
2022-11-29T03:55:39.180Z,18.80
2022-11-29T03:58:14.781Z,20.17
2022-11-29T04:00:54.331Z,19.50
2022-11-29T04:03:32.190Z,17.60
2022-11-29T04:06:36.233Z,16.20
2022-11-29T04:09:09.124Z,13.63
2022-11-29T04:12:20.480Z,14.10
2022-11-29T04:15:15.751Z,14.27
2022-11-29T04:18:14.179Z,12.13
2022-11-29T04:20:59.578Z,13.38
2022-11-29T04:23:36.169Z,13.90
2022-11-29T04:26:35.083Z,19.05
2022-11-29T04:29:33.286Z,20.10
2022-11-29T04:32:20.442Z,18.80
2022-11-29T04:35:15.193Z,17.52
2022-11-29T04:38:15.310Z,18.10
2022-11-29T04:41:07.234Z,17.67
2022-11-29T04:43:39.866Z,19.58
2022-11-29T04:46:38.305Z,20.80
2022-11-29T04:49:29.394Z,19.35
2022-11-29T04:52:27.262Z,17.45
2022-11-29T04:55:36.578Z,18.75
2022-11-29T04:58:23.308Z,16.10
2022-11-29T05:01:06.904Z,15.07
2022-11-29T05:04:09.307Z,14.10
2022-11-29T05:06:50.689Z,15.05
2022-11-29T05:09:56.320Z,16.92
2022-11-29T05:13:06.283Z,18.73
2022-11-29T05:16:05.017Z,19.50
2022-11-29T05:19:15.283Z,16.85
2022-11-29T05:22:24.368Z,15.60
2022-11-29T05:25:23.310Z,15.10
2022-11-29T05:28:10.250Z,15.45
2022-11-29T05:31:04.306Z,15.07
2022-11-29T05:33:52.325Z,16.90
2022-11-29T05:36:56.256Z,18.60
2022-11-29T05:39:55.439Z,16.65
2022-11-29T05:43:03.957Z,15.05
2022-11-29T05:45:44.282Z,16.92
2022-11-29T05:48:52.325Z,16.90
2022-11-29T05:51:41.239Z,15.32
2022-11-29T05:54:36.342Z,16.45
2022-11-29T05:57:38.481Z,15.43
2022-11-29T06:00:13.350Z,13.68
2022-11-29T06:02:46.665Z,16.10
2022-11-29T06:05:30.374Z,15.07
2022-11-29T06:08:16.316Z,13.85
2022-11-29T06:11:22.330Z,12.50
2022-11-29T06:14:05.513Z,11.40
2022-11-29T06:17:03.483Z,12.43
2022-11-29T06:20:16.409Z,12.45
2022-11-29T06:23:24.222Z,15.73
2022-11-29T06:26:15.379Z,14.20
2022-11-29T06:29:27.594Z,16.73
2022-11-29T06:32:27.469Z,14.80
2022-11-29T06:35:09.486Z,15.70
2022-11-29T06:37:51.412Z,16.08
2022-11-29T06:40:18.309Z,16.25
2022-11-29T06:42:55.425Z,20.38
2022-11-29T06:45:22.691Z,19.30
2022-11-29T06:48:11.403Z,19.40
2022-11-29T06:51:06.443Z,18.13
2022-11-29T06:53:50.442Z,17.75
2022-11-29T06:56:17.219Z,20.30
2022-11-29T06:59:32.436Z,19.80
2022-11-29T07:02:19.692Z,19.13
2022-11-29T07:05:19.455Z,18.45
2022-11-29T07:07:53.457Z,18.42
2022-11-29T07:10:27.621Z,18.80
2022-11-29T07:13:01.455Z,16.92
2022-11-29T07:15:28.896Z,16.27
2022-11-29T07:18:11.489Z,15.18
2022-11-29T07:24:18.500Z,15.85
2022-11-29T07:26:59.740Z,16.23
2022-11-29T07:29:42.486Z,16.25
2022-11-29T07:32:24.488Z,18.70
2022-11-29T07:35:03.504Z,16.42
2022-11-29T07:37:46.485Z,16.15
2022-11-29T07:40:23.858Z,15.68
2022-11-29T07:43:27.498Z,15.55
2022-11-29T07:45:55.868Z,14.63
2022-11-29T07:48:29.485Z,12.77
2022-11-29T07:51:03.528Z,11.65
2022-11-29T07:53:37.515Z,12.85
2022-11-29T07:56:04.587Z,13.93
2022-11-29T07:58:37.562Z,12.70
2022-11-29T08:01:04.448Z,11.45
2022-11-29T08:03:39.568Z,10.32
2022-11-29T08:06:06.551Z,9.90
2022-11-29T08:08:43.975Z,10.10
2022-11-29T08:11:19.523Z,11.00
2022-11-29T08:13:46.381Z,11.13
2022-11-29T08:16:24.649Z,11.48
2022-11-29T08:18:54.064Z,9.40
2022-11-29T08:21:27.543Z,8.90
2022-11-29T08:24:00.554Z,8.13
2022-11-29T08:26:31.676Z,7.82
2022-11-29T08:28:59.023Z,7.23
2022-11-29T08:31:32.650Z,6.93
2022-11-29T08:33:59.518Z,7.88
2022-11-29T08:36:32.616Z,7.38
2022-11-29T08:39:08.661Z,6.80
2022-11-29T08:41:42.572Z,7.30
2022-11-29T08:44:15.609Z,7.03
2022-11-29T08:47:01.060Z,6.93
2022-11-29T08:49:34.651Z,7.25
2022-11-29T08:52:26.619Z,9.23
2022-11-29T08:54:55.624Z,7.85
2022-11-29T08:57:39.935Z,10.18
2022-11-29T09:00:14.618Z,8.07
2022-11-29T09:02:41.640Z,8.23
2022-11-29T09:05:15.668Z,6.93
2022-11-29T09:07:55.701Z,6.43
2022-11-29T09:10:28.958Z,5.47
2022-11-29T09:13:02.658Z,6.45
2022-11-29T09:15:35.677Z,9.70
2022-11-29T09:18:04.315Z,9.18
2022-11-29T09:20:37.728Z,10.63
2022-11-29T09:23:05.020Z,8.98
2022-11-29T09:25:38.697Z,9.10
2022-11-29T09:28:05.791Z,8.90
2022-11-29T09:30:40.687Z,8.15
2022-11-29T09:33:07.482Z,9.55
2022-11-29T09:35:41.769Z,9.25
2022-11-29T09:38:12.001Z,11.85
2022-11-29T09:40:59.695Z,10.48
2022-11-29T09:43:35.711Z,9.57
2022-11-29T09:46:23.229Z,9.98
2022-11-29T09:49:28.726Z,10.60
2022-11-29T09:52:08.731Z,10.60
2022-11-29T09:55:02.828Z,10.30
2022-11-29T09:57:37.716Z,13.30
2022-11-29T10:00:14.007Z,12.77
2022-11-29T10:02:53.792Z,15.32
2022-11-29T10:05:51.886Z,15.23
2022-11-29T10:08:48.769Z,12.60
2022-11-29T10:11:43.616Z,12.15
2022-11-29T10:14:27.848Z,12.80
2022-11-29T10:17:04.815Z,13.13
2022-11-29T10:19:47.793Z,13.85
2022-11-29T10:22:22.477Z,12.38
2022-11-29T10:25:01.839Z,14.82
2022-11-29T10:27:36.814Z,13.45
2022-11-29T10:30:12.877Z,11.98
2022-11-29T10:32:41.054Z,10.77
2022-11-29T10:35:25.794Z,10.45
2022-11-29T10:40:56.092Z,11.00
2022-11-29T10:43:31.762Z,12.43
2022-11-29T10:45:59.060Z,11.98
2022-11-29T10:48:31.721Z,10.65
2022-11-29T10:51:05.819Z,11.07
2022-11-29T10:53:37.064Z,10.45
2022-11-29T10:56:30.808Z,10.18
2022-11-29T10:59:05.094Z,9.07
2022-11-29T11:01:43.831Z,8.25
2022-11-29T11:04:26.823Z,6.80
2022-11-29T11:07:02.833Z,6.43
2022-11-29T11:09:53.297Z,6.15
2022-11-29T11:12:29.862Z,6.90
2022-11-29T11:15:29.853Z,5.70
2022-11-29T11:18:11.794Z,5.57
2022-11-29T11:20:42.300Z,8.60
2022-11-29T11:23:38.700Z,6.60
2022-11-29T11:26:15.215Z,5.25
2022-11-29T11:28:56.851Z,5.55
2022-11-29T11:31:42.894Z,5.85
2022-11-29T11:34:29.924Z,8.57
2022-11-29T11:37:21.900Z,12.00
2022-11-29T11:39:51.833Z,11.80
2022-11-29T11:42:45.884Z,13.45
2022-11-29T11:45:13.223Z,14.77
2022-11-29T11:47:52.875Z,14.10
2022-11-29T11:50:32.727Z,13.73
2022-11-29T11:53:13.904Z,14.50
2022-11-29T11:55:43.875Z,14.23
2022-11-29T11:58:20.973Z,15.35
2022-11-29T12:01:08.647Z,13.65
2022-11-29T12:04:20.894Z,12.90
2022-11-29T12:07:06.932Z,13.10
2022-11-29T12:09:44.965Z,15.73
2022-11-29T12:12:28.002Z,14.48
2022-11-29T12:15:05.931Z,14.80
2022-11-29T12:18:04.319Z,15.45
2022-11-29T12:21:01.923Z,13.70
2022-11-29T12:23:49.243Z,14.43
2022-11-29T12:27:03.412Z,15.07
2022-11-29T12:29:41.947Z,15.82
2022-11-29T12:32:22.146Z,14.10
2022-11-29T12:35:00.960Z,14.68
2022-11-29T12:37:42.750Z,14.05
2022-11-29T12:40:43.006Z,12.93
2022-11-29T12:43:31.948Z,12.30
2022-11-29T12:46:23.011Z,12.70
2022-11-29T12:49:14.670Z,15.85
2022-11-29T12:51:50.977Z,16.70
2022-11-29T12:55:06.935Z,16.35
2022-11-29T12:57:51.859Z,16.80
2022-11-29T13:00:27.036Z,15.50
2022-11-29T13:03:11.666Z,15.65
2022-11-29T13:06:09.008Z,16.42
2022-11-29T13:09:01.012Z,15.77
2022-11-29T13:11:28.441Z,17.08
2022-11-29T13:14:44.023Z,16.67
2022-11-29T13:17:46.172Z,16.73
2022-11-29T13:20:50.670Z,15.30
2022-11-29T13:23:45.707Z,14.80
2022-11-29T13:26:16.583Z,15.02
2022-11-29T13:28:53.068Z,13.57
2022-11-29T13:31:22.901Z,13.40
2022-11-29T13:34:26.046Z,13.13
2022-11-29T13:37:21.092Z,13.85
2022-11-29T13:40:13.036Z,14.07
2022-11-29T13:43:04.178Z,14.52
2022-11-29T13:46:12.100Z,16.23
2022-11-29T13:48:50.480Z,15.50
2022-11-29T13:51:35.085Z,16.48
2022-11-29T13:54:26.457Z,16.63
2022-11-29T13:57:13.268Z,16.55
2022-11-29T13:59:47.146Z,16.15
2022-11-29T14:02:35.153Z,16.17
2022-11-29T14:05:02.221Z,14.65
2022-11-29T14:07:36.209Z,13.82
2022-11-29T14:10:09.615Z,11.90
2022-11-29T14:12:47.111Z,12.43
2022-11-29T14:15:36.421Z,15.25
2022-11-29T14:18:15.197Z,13.85
2022-11-29T14:20:53.919Z,13.25
2022-11-29T14:23:56.150Z,16.25
2022-11-29T14:26:33.178Z,15.98
2022-11-29T14:29:00.223Z,18.80
2022-11-29T14:32:00.114Z,18.80
2022-11-29T14:34:32.915Z,20.05
2022-11-29T14:37:21.139Z,18.60
2022-11-29T14:39:59.169Z,19.13
2022-11-29T14:42:28.004Z,20.58
2022-11-29T14:45:11.153Z,18.60
2022-11-29T14:47:47.906Z,18.40
2022-11-29T14:50:39.222Z,18.67
2022-11-29T14:53:26.944Z,16.33
2022-11-29T14:56:35.181Z,17.63
2022-11-29T14:59:39.625Z,16.52
2022-11-29T15:02:46.281Z,15.95
2022-11-29T15:05:28.287Z,14.18
2022-11-29T15:08:28.099Z,16.27
2022-11-29T15:11:20.280Z,19.20
2022-11-29T15:14:02.542Z,20.95
2022-11-29T15:16:52.455Z,21.30
2022-11-29T15:19:45.036Z,20.30
2022-11-29T15:22:34.180Z,18.00
2022-11-29T15:25:05.163Z,16.52
2022-11-29T15:27:40.407Z,19.63
2022-11-29T15:30:47.198Z,18.30
2022-11-29T15:33:32.325Z,17.30
2022-11-29T15:36:12.587Z,17.52
2022-11-29T15:39:12.310Z,18.98
2022-11-29T15:41:41.710Z,19.40
2022-11-29T15:44:29.249Z,19.80
2022-11-29T15:47:02.275Z,19.02
2022-11-29T15:49:30.551Z,19.73
2022-11-29T15:52:20.236Z,18.50
2022-11-29T15:54:52.001Z,17.85
2022-11-29T15:57:46.281Z,20.55
2022-11-29T16:00:23.063Z,19.52
2022-11-29T16:03:11.307Z,18.92
2022-11-29T16:05:46.326Z,17.45
2022-11-29T16:08:21.020Z,18.02
2022-11-29T16:10:59.306Z,18.95
2022-11-29T16:13:40.329Z,18.70
2022-11-29T16:16:20.059Z,17.48
2022-11-29T16:18:55.413Z,16.67
2022-11-29T16:21:28.911Z,16.55
2022-11-29T16:24:03.296Z,17.33
2022-11-29T16:26:36.990Z,17.15
2022-11-29T16:29:11.322Z,15.82
2022-11-29T16:31:38.542Z,14.60
2022-11-29T16:34:21.295Z,15.02
2022-11-29T16:37:01.029Z,13.35
2022-11-29T16:39:35.359Z,16.30
2022-11-29T16:42:15.968Z,16.48
2022-11-29T16:44:51.330Z,16.67
2022-11-29T16:47:20.632Z,15.35
2022-11-29T16:50:18.373Z,13.75
2022-11-29T16:52:46.132Z,12.55
2022-11-29T16:55:19.407Z,11.45
2022-11-29T16:57:47.677Z,11.88
2022-11-29T17:00:24.541Z,10.27
2022-11-29T17:02:51.948Z,11.18
2022-11-29T17:05:25.442Z,11.27
2022-11-29T17:07:59.404Z,10.23
2022-11-29T17:10:33.572Z,10.88
2022-11-29T17:13:01.662Z,11.98
2022-11-29T17:15:28.490Z,11.18
2022-11-29T17:18:02.433Z,9.95
2022-11-29T17:20:29.210Z,9.52
2022-11-29T17:23:08.528Z,10.13
2022-11-29T17:25:35.341Z,12.70
2022-11-29T17:28:02.915Z,11.38
2022-11-29T17:30:36.652Z,10.32
2022-11-29T17:33:09.963Z,11.18
2022-11-29T17:35:43.457Z,11.30
2022-11-29T17:38:16.565Z,10.35
2022-11-29T17:40:43.294Z,10.38
2022-11-29T17:43:10.011Z,9.55
2022-11-29T17:45:45.504Z,9.75
2022-11-29T17:48:18.409Z,9.98
2022-11-29T17:50:51.469Z,9.70
2022-11-29T17:53:24.611Z,9.68
2022-11-29T17:55:51.685Z,9.43
2022-11-29T17:58:18.550Z,9.10
2022-11-29T18:00:51.447Z,9.65
2022-11-29T18:03:18.282Z,8.88
2022-11-29T18:05:51.515Z,10.05
2022-11-29T18:08:18.390Z,9.73
2022-11-29T18:10:45.135Z,10.32
2022-11-29T18:13:18.493Z,8.88
2022-11-29T18:15:51.488Z,9.30
2022-11-29T18:18:18.307Z,10.55
2022-11-29T18:20:51.468Z,9.50
2022-11-29T18:23:18.283Z,10.65
2022-11-29T18:26:05.542Z,10.75
2022-11-29T18:28:36.665Z,10.68
2022-11-29T18:31:18.616Z,11.20
2022-11-29T18:33:48.277Z,11.10
2022-11-29T18:36:27.521Z,10.80
2022-11-29T18:38:56.920Z,9.90
2022-11-29T18:41:31.581Z,9.38
2022-11-29T18:44:02.276Z,8.73
2022-11-29T18:46:39.517Z,9.10
2022-11-29T18:49:08.489Z,11.32
2022-11-29T18:51:36.941Z,11.27
2022-11-29T18:54:11.600Z,13.00
2022-11-29T18:56:38.942Z,10.32
2022-11-29T18:59:16.597Z,11.73
2022-11-29T19:01:51.609Z,9.30
2022-11-29T19:04:20.733Z,9.95
2022-11-29T19:06:54.570Z,10.27
2022-11-29T19:09:22.263Z,12.52
2022-11-29T19:11:56.597Z,12.07
2022-11-29T19:14:23.671Z,12.23
2022-11-29T19:16:57.618Z,10.55
2022-11-29T19:19:24.553Z,10.90
2022-11-29T19:21:59.689Z,11.82
2022-11-29T19:24:26.501Z,11.20
2022-11-29T19:26:55.807Z,15.43
2022-11-29T19:29:29.646Z,15.60
2022-11-29T19:32:03.746Z,14.88
2022-11-29T19:34:30.791Z,13.18
2022-11-29T19:36:57.601Z,12.50
2022-11-29T19:39:30.622Z,12.38
2022-11-29T19:41:59.486Z,11.50
2022-11-29T19:44:48.239Z,10.40
2022-11-29T19:47:19.597Z,9.75
2022-11-29T19:49:53.139Z,9.75
2022-11-29T19:52:21.379Z,10.68
2022-11-29T19:54:48.173Z,9.55
2022-11-29T19:57:21.636Z,9.32
2022-11-29T19:59:48.530Z,9.10
2022-11-29T20:02:22.720Z,8.30
2022-11-29T20:04:56.702Z,9.13
2022-11-29T20:07:30.251Z,8.68
2022-11-29T20:10:03.813Z,8.88
2022-11-29T20:12:32.857Z,7.80
2022-11-29T20:15:01.034Z,9.38
2022-11-29T20:17:34.802Z,8.90
2022-11-29T20:20:01.760Z,11.35
2022-11-29T20:22:33.808Z,10.15
2022-11-29T20:25:07.694Z,9.55
2022-11-29T20:27:45.715Z,8.98
2022-11-29T20:30:13.351Z,8.40
2022-11-29T20:32:46.829Z,9.80
2022-11-29T20:35:13.968Z,10.60
2022-11-29T20:38:26.786Z,10.07
2022-11-29T20:41:04.978Z,9.93
2022-11-29T20:43:58.846Z,8.90
2022-11-29T20:46:26.451Z,8.27
2022-11-29T20:48:53.988Z,8.93
2022-11-29T20:51:37.859Z,8.00
2022-11-29T20:54:04.933Z,8.80
2022-11-29T20:56:44.737Z,9.30
2022-11-29T20:59:11.611Z,11.05
2022-11-29T21:01:38.469Z,12.30
2022-11-29T21:04:14.557Z,13.10
2022-11-29T21:06:43.722Z,11.80
2022-11-29T21:09:10.874Z,10.57
2022-11-29T21:11:44.878Z,11.13
2022-11-29T21:14:12.052Z,9.98
2022-11-29T21:16:39.077Z,10.05
2022-11-29T21:19:12.908Z,9.10
2022-11-29T21:21:52.141Z,10.52
2022-11-29T21:24:52.951Z,12.02
2022-11-29T21:27:34.350Z,14.65
2022-11-29T21:30:11.789Z,18.65
2022-11-29T21:32:38.962Z,15.25
2022-11-29T21:35:12.849Z,17.65
2022-11-29T21:37:40.993Z,14.63
2022-11-29T21:40:09.632Z,14.40
2022-11-29T21:42:43.772Z,13.98
2022-11-29T21:45:17.833Z,11.95
2022-11-29T21:48:35.807Z,11.80
2022-11-29T21:51:12.802Z,11.55
2022-11-29T21:53:40.566Z,12.43
2022-11-29T21:56:21.828Z,12.57
2022-11-29T21:58:48.723Z,11.30
2022-11-29T22:01:24.883Z,11.30
2022-11-29T22:03:53.891Z,12.10
2022-11-29T22:06:30.852Z,11.45
2022-11-29T22:08:57.707Z,12.82
2022-11-29T22:11:36.846Z,11.70
2022-11-29T22:14:15.234Z,11.40
2022-11-29T22:16:57.002Z,12.90
2022-11-29T22:19:29.305Z,16.90
2022-11-29T22:22:08.887Z,14.93
2022-11-29T22:24:36.873Z,13.18
2022-11-29T22:27:18.900Z,13.30
2022-11-29T22:29:45.830Z,12.15
2022-11-29T22:32:12.645Z,11.95
2022-11-29T22:34:46.275Z,11.07
2022-11-29T22:37:15.101Z,10.15
2022-11-29T22:39:41.880Z,10.68
2022-11-29T22:42:14.919Z,12.57
2022-11-29T22:44:48.327Z,12.38
2022-11-29T22:47:15.307Z,11.65
2022-11-29T22:49:44.423Z,9.90
2022-11-29T22:52:17.885Z,9.27
2022-11-29T22:54:50.917Z,9.48
2022-11-29T22:57:22.239Z,8.35
2022-11-29T22:59:55.919Z,8.40
2022-11-29T23:02:22.733Z,7.57
2022-11-29T23:04:58.025Z,7.43
2022-11-29T23:07:32.031Z,7.03
2022-11-29T23:10:05.943Z,6.72
2022-11-29T23:12:32.730Z,6.43
2022-11-29T23:15:08.980Z,6.28
2022-11-29T23:17:35.965Z,7.15
2022-11-29T23:20:02.734Z,6.65
2022-11-29T23:22:37.929Z,6.18
2022-11-29T23:25:06.302Z,5.28
2022-11-29T23:27:45.965Z,6.00
2022-11-29T23:30:19.974Z,5.70
2022-11-29T23:32:52.952Z,6.90
2022-11-29T23:35:26.985Z,5.60
2022-11-29T23:38:05.973Z,7.30
2022-11-29T23:40:33.634Z,6.82
2022-11-29T23:43:07.127Z,6.38
2022-11-29T23:45:43.026Z,8.18
2022-11-29T23:48:09.917Z,6.60
2022-11-29T23:50:42.971Z,5.93
2022-11-29T23:53:12.946Z,7.13
2022-11-29T23:55:46.057Z,6.93
2022-11-29T23:58:13.030Z,6.93
